sensor_id;sensor_type;location;lat;lon;timestamp;P1;durP1;ratioP1;P2;durP2;ratioP2
32475;SDS011;18929;48.008;10.882;2022-12-18T00:02:06;103.28;;;42.55;;
32475;SDS011;18929;48.008;10.882;2022-12-18T00:04:37;112.95;;;44.40;;
32475;SDS011;18929;48.008;10.882;2022-12-18T00:07:05;102.93;;;41.88;;
32475;SDS011;18929;48.008;10.882;2022-12-18T00:09:33;112.43;;;42.97;;
32475;SDS011;18929;48.008;10.882;2022-12-18T00:12:01;106.40;;;43.22;;
32475;SDS011;18929;48.008;10.882;2022-12-18T00:14:31;108.50;;;42.42;;
32475;SDS011;18929;48.008;10.882;2022-12-18T00:16:59;112.72;;;43.35;;
32475;SDS011;18929;48.008;10.882;2022-12-18T00:19:28;103.40;;;38.25;;
32475;SDS011;18929;48.008;10.882;2022-12-18T00:21:55;111.60;;;42.95;;
32475;SDS011;18929;48.008;10.882;2022-12-18T00:24:23;90.53;;;38.67;;
32475;SDS011;18929;48.008;10.882;2022-12-18T00:26:51;97.97;;;41.40;;
32475;SDS011;18929;48.008;10.882;2022-12-18T00:29:18;101.45;;;40.55;;
32475;SDS011;18929;48.008;10.882;2022-12-18T00:31:47;101.95;;;39.92;;
32475;SDS011;18929;48.008;10.882;2022-12-18T00:34:15;95.78;;;39.30;;
32475;SDS011;18929;48.008;10.882;2022-12-18T00:36:42;109.65;;;43.92;;
32475;SDS011;18929;48.008;10.882;2022-12-18T00:39:10;101.78;;;39.80;;
32475;SDS011;18929;48.008;10.882;2022-12-18T00:41:38;92.95;;;38.17;;
32475;SDS011;18929;48.008;10.882;2022-12-18T00:44:23;83.55;;;35.17;;
32475;SDS011;18929;48.008;10.882;2022-12-18T00:46:52;96.63;;;38.20;;
32475;SDS011;18929;48.008;10.882;2022-12-18T00:49:20;94.80;;;37.97;;
32475;SDS011;18929;48.008;10.882;2022-12-18T00:51:47;95.05;;;37.20;;
32475;SDS011;18929;48.008;10.882;2022-12-18T00:54:15;104.70;;;39.03;;
32475;SDS011;18929;48.008;10.882;2022-12-18T00:56:43;156.63;;;76.90;;
32475;SDS011;18929;48.008;10.882;2022-12-18T00:59:10;100.13;;;39.00;;
32475;SDS011;18929;48.008;10.882;2022-12-18T01:01:38;95.93;;;37.83;;
32475;SDS011;18929;48.008;10.882;2022-12-18T01:04:07;101.97;;;40.17;;
32475;SDS011;18929;48.008;10.882;2022-12-18T01:06:35;89.15;;;36.45;;
32475;SDS011;18929;48.008;10.882;2022-12-18T01:09:02;90.60;;;36.42;;
32475;SDS011;18929;48.008;10.882;2022-12-18T01:11:30;93.30;;;38.22;;
32475;SDS011;18929;48.008;10.882;2022-12-18T01:13:58;87.97;;;35.72;;
32475;SDS011;18929;48.008;10.882;2022-12-18T01:16:28;93.68;;;37.63;;
32475;SDS011;18929;48.008;10.882;2022-12-18T01:18:56;88.78;;;37.10;;
32475;SDS011;18929;48.008;10.882;2022-12-18T01:21:25;100.15;;;38.25;;
32475;SDS011;18929;48.008;10.882;2022-12-18T01:23:54;94.63;;;37.05;;
32475;SDS011;18929;48.008;10.882;2022-12-18T01:26:23;91.60;;;36.65;;
32475;SDS011;18929;48.008;10.882;2022-12-18T01:28:53;89.03;;;36.03;;
32475;SDS011;18929;48.008;10.882;2022-12-18T01:31:22;93.22;;;36.80;;
32475;SDS011;18929;48.008;10.882;2022-12-18T01:33:52;83.82;;;34.35;;
32475;SDS011;18929;48.008;10.882;2022-12-18T01:36:20;90.50;;;35.95;;
32475;SDS011;18929;48.008;10.882;2022-12-18T01:38:51;85.80;;;36.17;;
32475;SDS011;18929;48.008;10.882;2022-12-18T01:41:21;86.75;;;35.53;;
32475;SDS011;18929;48.008;10.882;2022-12-18T01:43:51;80.43;;;33.38;;
32475;SDS011;18929;48.008;10.882;2022-12-18T01:46:20;88.25;;;34.20;;
32475;SDS011;18929;48.008;10.882;2022-12-18T01:48:53;83.45;;;34.05;;
32475;SDS011;18929;48.008;10.882;2022-12-18T01:51:24;78.03;;;31.38;;
32475;SDS011;18929;48.008;10.882;2022-12-18T01:53:54;79.72;;;34.00;;
32475;SDS011;18929;48.008;10.882;2022-12-18T01:56:23;84.38;;;33.13;;
32475;SDS011;18929;48.008;10.882;2022-12-18T01:58:52;88.68;;;33.88;;
32475;SDS011;18929;48.008;10.882;2022-12-18T02:01:22;84.63;;;35.08;;
32475;SDS011;18929;48.008;10.882;2022-12-18T02:03:51;74.88;;;31.50;;
32475;SDS011;18929;48.008;10.882;2022-12-18T02:06:20;80.00;;;32.22;;
32475;SDS011;18929;48.008;10.882;2022-12-18T02:08:58;80.07;;;33.97;;
32475;SDS011;18929;48.008;10.882;2022-12-18T02:11:34;79.47;;;32.05;;
32475;SDS011;18929;48.008;10.882;2022-12-18T02:14:10;88.20;;;34.53;;
32475;SDS011;18929;48.008;10.882;2022-12-18T02:16:45;83.72;;;34.20;;
32475;SDS011;18929;48.008;10.882;2022-12-18T02:22:17;78.75;;;30.30;;
32475;SDS011;18929;48.008;10.882;2022-12-18T02:24:58;83.57;;;32.97;;
32475;SDS011;18929;48.008;10.882;2022-12-18T02:27:34;80.32;;;33.53;;
32475;SDS011;18929;48.008;10.882;2022-12-18T02:30:05;83.90;;;32.55;;
32475;SDS011;18929;48.008;10.882;2022-12-18T02:32:35;83.78;;;33.30;;
32475;SDS011;18929;48.008;10.882;2022-12-18T02:35:07;81.50;;;34.28;;
32475;SDS011;18929;48.008;10.882;2022-12-18T02:37:39;79.40;;;33.90;;
32475;SDS011;18929;48.008;10.882;2022-12-18T02:40:08;79.30;;;31.98;;
32475;SDS011;18929;48.008;10.882;2022-12-18T02:42:40;82.03;;;31.92;;
32475;SDS011;18929;48.008;10.882;2022-12-18T02:45:08;81.53;;;32.78;;
32475;SDS011;18929;48.008;10.882;2022-12-18T02:47:36;80.63;;;32.70;;
32475;SDS011;18929;48.008;10.882;2022-12-18T02:50:11;74.22;;;32.08;;
32475;SDS011;18929;48.008;10.882;2022-12-18T02:52:45;74.30;;;32.38;;
32475;SDS011;18929;48.008;10.882;2022-12-18T02:55:28;78.18;;;31.02;;
32475;SDS011;18929;48.008;10.882;2022-12-18T02:58:05;76.70;;;31.98;;
32475;SDS011;18929;48.008;10.882;2022-12-18T03:00:41;82.90;;;33.80;;
32475;SDS011;18929;48.008;10.882;2022-12-18T03:03:16;76.43;;;32.38;;
32475;SDS011;18929;48.008;10.882;2022-12-18T03:05:52;73.53;;;31.27;;
32475;SDS011;18929;48.008;10.882;2022-12-18T03:08:24;82.20;;;33.53;;
32475;SDS011;18929;48.008;10.882;2022-12-18T03:10:56;75.15;;;31.42;;
32475;SDS011;18929;48.008;10.882;2022-12-18T03:13:32;76.60;;;31.67;;
32475;SDS011;18929;48.008;10.882;2022-12-18T03:16:02;81.80;;;32.25;;
32475;SDS011;18929;48.008;10.882;2022-12-18T03:18:35;81.85;;;32.13;;
32475;SDS011;18929;48.008;10.882;2022-12-18T03:21:06;82.43;;;32.40;;
32475;SDS011;18929;48.008;10.882;2022-12-18T03:23:36;75.57;;;32.50;;
32475;SDS011;18929;48.008;10.882;2022-12-18T03:26:10;78.55;;;33.13;;
32475;SDS011;18929;48.008;10.882;2022-12-18T03:28:43;81.43;;;32.50;;
32475;SDS011;18929;48.008;10.882;2022-12-18T03:31:14;78.40;;;33.30;;
32475;SDS011;18929;48.008;10.882;2022-12-18T03:33:45;69.32;;;30.13;;
32475;SDS011;18929;48.008;10.882;2022-12-18T03:36:18;86.55;;;34.15;;
32475;SDS011;18929;48.008;10.882;2022-12-18T03:38:46;88.10;;;33.45;;
32475;SDS011;18929;48.008;10.882;2022-12-18T03:41:16;74.00;;;30.55;;
32475;SDS011;18929;48.008;10.882;2022-12-18T03:43:52;80.72;;;33.35;;
32475;SDS011;18929;48.008;10.882;2022-12-18T03:46:27;79.15;;;32.15;;
32475;SDS011;18929;48.008;10.882;2022-12-18T03:51:28;81.47;;;33.15;;
32475;SDS011;18929;48.008;10.882;2022-12-18T03:54:04;76.93;;;31.05;;
32475;SDS011;18929;48.008;10.882;2022-12-18T03:56:36;71.63;;;29.67;;
32475;SDS011;18929;48.008;10.882;2022-12-18T03:59:11;68.30;;;30.50;;
32475;SDS011;18929;48.008;10.882;2022-12-18T04:01:42;82.10;;;33.75;;
32475;SDS011;18929;48.008;10.882;2022-12-18T04:04:15;78.75;;;33.42;;
32475;SDS011;18929;48.008;10.882;2022-12-18T04:06:48;77.20;;;31.42;;
32475;SDS011;18929;48.008;10.882;2022-12-18T04:09:17;85.30;;;34.40;;
32475;SDS011;18929;48.008;10.882;2022-12-18T04:11:46;84.05;;;33.45;;
32475;SDS011;18929;48.008;10.882;2022-12-18T04:14:17;86.25;;;33.70;;
32475;SDS011;18929;48.008;10.882;2022-12-18T04:16:46;83.03;;;32.45;;
32475;SDS011;18929;48.008;10.882;2022-12-18T04:19:15;83.80;;;33.95;;
32475;SDS011;18929;48.008;10.882;2022-12-18T04:21:43;87.55;;;34.80;;
32475;SDS011;18929;48.008;10.882;2022-12-18T04:24:11;69.90;;;30.55;;
32475;SDS011;18929;48.008;10.882;2022-12-18T04:26:38;87.45;;;34.15;;
32475;SDS011;18929;48.008;10.882;2022-12-18T04:29:06;81.78;;;32.53;;
32475;SDS011;18929;48.008;10.882;2022-12-18T04:31:35;85.53;;;32.78;;
32475;SDS011;18929;48.008;10.882;2022-12-18T04:34:06;69.50;;;31.63;;
32475;SDS011;18929;48.008;10.882;2022-12-18T04:36:33;80.82;;;33.05;;
32475;SDS011;18929;48.008;10.882;2022-12-18T04:39:01;78.13;;;32.60;;
32475;SDS011;18929;48.008;10.882;2022-12-18T04:41:29;80.28;;;32.28;;
32475;SDS011;18929;48.008;10.882;2022-12-18T04:43:57;68.13;;;28.92;;
32475;SDS011;18929;48.008;10.882;2022-12-18T04:46:25;80.97;;;31.35;;
32475;SDS011;18929;48.008;10.882;2022-12-18T04:48:56;65.50;;;26.83;;
32475;SDS011;18929;48.008;10.882;2022-12-18T04:51:23;81.85;;;33.35;;
32475;SDS011;18929;48.008;10.882;2022-12-18T04:53:51;91.60;;;35.90;;
32475;SDS011;18929;48.008;10.882;2022-12-18T04:56:20;61.50;;;27.67;;
32475;SDS011;18929;48.008;10.882;2022-12-18T04:58:47;93.18;;;33.65;;
32475;SDS011;18929;48.008;10.882;2022-12-18T05:01:16;75.20;;;26.45;;
32475;SDS011;18929;48.008;10.882;2022-12-18T05:03:44;78.95;;;31.27;;
32475;SDS011;18929;48.008;10.882;2022-12-18T05:06:14;81.82;;;31.20;;
32475;SDS011;18929;48.008;10.882;2022-12-18T05:08:42;72.43;;;29.92;;
32475;SDS011;18929;48.008;10.882;2022-12-18T05:11:12;83.55;;;32.60;;
32475;SDS011;18929;48.008;10.882;2022-12-18T05:13:41;84.60;;;31.42;;
32475;SDS011;18929;48.008;10.882;2022-12-18T05:16:12;85.27;;;33.27;;
32475;SDS011;18929;48.008;10.882;2022-12-18T05:18:40;80.13;;;31.80;;
32475;SDS011;18929;48.008;10.882;2022-12-18T05:21:09;70.38;;;31.20;;
32475;SDS011;18929;48.008;10.882;2022-12-18T05:23:38;80.72;;;30.95;;
32475;SDS011;18929;48.008;10.882;2022-12-18T05:26:06;65.90;;;29.25;;
32475;SDS011;18929;48.008;10.882;2022-12-18T05:28:35;90.72;;;33.67;;
32475;SDS011;18929;48.008;10.882;2022-12-18T05:31:03;68.80;;;29.70;;
32475;SDS011;18929;48.008;10.882;2022-12-18T05:33:33;83.82;;;33.70;;
32475;SDS011;18929;48.008;10.882;2022-12-18T05:36:02;84.25;;;33.08;;
32475;SDS011;18929;48.008;10.882;2022-12-18T05:38:31;89.57;;;33.92;;
32475;SDS011;18929;48.008;10.882;2022-12-18T05:41:00;85.20;;;33.28;;
32475;SDS011;18929;48.008;10.882;2022-12-18T05:43:28;84.40;;;33.33;;
32475;SDS011;18929;48.008;10.882;2022-12-18T05:45:56;84.65;;;32.00;;
32475;SDS011;18929;48.008;10.882;2022-12-18T05:48:24;80.38;;;30.80;;
32475;SDS011;18929;48.008;10.882;2022-12-18T05:50:52;78.72;;;31.48;;
32475;SDS011;18929;48.008;10.882;2022-12-18T05:53:20;77.55;;;29.95;;
32475;SDS011;18929;48.008;10.882;2022-12-18T05:55:48;79.75;;;30.90;;
32475;SDS011;18929;48.008;10.882;2022-12-18T05:58:17;76.07;;;29.70;;
32475;SDS011;18929;48.008;10.882;2022-12-18T06:00:45;74.22;;;31.10;;
32475;SDS011;18929;48.008;10.882;2022-12-18T06:06:03;79.20;;;31.52;;
32475;SDS011;18929;48.008;10.882;2022-12-18T06:08:39;81.97;;;29.83;;
32475;SDS011;18929;48.008;10.882;2022-12-18T06:11:10;73.75;;;29.85;;
32475;SDS011;18929;48.008;10.882;2022-12-18T06:13:39;75.50;;;29.50;;
32475;SDS011;18929;48.008;10.882;2022-12-18T06:16:07;80.53;;;32.30;;
32475;SDS011;18929;48.008;10.882;2022-12-18T06:18:37;74.72;;;28.27;;
32475;SDS011;18929;48.008;10.882;2022-12-18T06:21:06;80.93;;;30.55;;
32475;SDS011;18929;48.008;10.882;2022-12-18T06:23:34;77.78;;;30.70;;
32475;SDS011;18929;48.008;10.882;2022-12-18T06:26:06;81.22;;;32.95;;
32475;SDS011;18929;48.008;10.882;2022-12-18T06:28:38;81.32;;;32.30;;
32475;SDS011;18929;48.008;10.882;2022-12-18T06:31:12;92.80;;;33.30;;
32475;SDS011;18929;48.008;10.882;2022-12-18T06:33:41;83.60;;;33.53;;
32475;SDS011;18929;48.008;10.882;2022-12-18T06:36:11;85.30;;;33.92;;
32475;SDS011;18929;48.008;10.882;2022-12-18T06:38:53;93.13;;;34.75;;
32475;SDS011;18929;48.008;10.882;2022-12-18T06:41:21;84.75;;;33.25;;
32475;SDS011;18929;48.008;10.882;2022-12-18T06:43:51;78.80;;;34.15;;
32475;SDS011;18929;48.008;10.882;2022-12-18T06:46:18;88.00;;;32.35;;
32475;SDS011;18929;48.008;10.882;2022-12-18T06:48:46;82.78;;;31.73;;
32475;SDS011;18929;48.008;10.882;2022-12-18T06:51:18;80.95;;;33.85;;
32475;SDS011;18929;48.008;10.882;2022-12-18T06:53:46;88.55;;;34.28;;
32475;SDS011;18929;48.008;10.882;2022-12-18T06:56:13;82.90;;;33.58;;
32475;SDS011;18929;48.008;10.882;2022-12-18T06:58:42;84.82;;;31.90;;
32475;SDS011;18929;48.008;10.882;2022-12-18T07:01:12;86.45;;;33.22;;
32475;SDS011;18929;48.008;10.882;2022-12-18T07:03:40;82.65;;;32.30;;
32475;SDS011;18929;48.008;10.882;2022-12-18T07:06:12;72.32;;;30.08;;
32475;SDS011;18929;48.008;10.882;2022-12-18T07:08:41;86.45;;;34.17;;
32475;SDS011;18929;48.008;10.882;2022-12-18T07:11:13;69.05;;;30.75;;
32475;SDS011;18929;48.008;10.882;2022-12-18T07:52:25;76.38;;;30.75;;
32475;SDS011;18929;48.008;10.882;2022-12-18T07:55:09;74.35;;;29.40;;
32475;SDS011;18929;48.008;10.882;2022-12-18T07:57:36;82.20;;;32.15;;
32475;SDS011;18929;48.008;10.882;2022-12-18T08:00:03;77.82;;;31.05;;
32475;SDS011;18929;48.008;10.882;2022-12-18T08:02:32;76.65;;;31.30;;
32475;SDS011;18929;48.008;10.882;2022-12-18T08:04:59;77.45;;;31.20;;
32475;SDS011;18929;48.008;10.882;2022-12-18T08:07:28;80.97;;;32.45;;
32475;SDS011;18929;48.008;10.882;2022-12-18T08:09:55;81.22;;;32.40;;
32475;SDS011;18929;48.008;10.882;2022-12-18T08:12:22;78.35;;;30.58;;
32475;SDS011;18929;48.008;10.882;2022-12-18T08:14:49;89.32;;;32.72;;
32475;SDS011;18929;48.008;10.882;2022-12-18T08:17:16;83.63;;;32.30;;
32475;SDS011;18929;48.008;10.882;2022-12-18T08:19:43;65.00;;;28.65;;
32475;SDS011;18929;48.008;10.882;2022-12-18T08:22:10;84.25;;;31.73;;
32475;SDS011;18929;48.008;10.882;2022-12-18T08:24:38;64.53;;;26.73;;
32475;SDS011;18929;48.008;10.882;2022-12-18T08:27:05;78.85;;;30.20;;
32475;SDS011;18929;48.008;10.882;2022-12-18T08:29:32;74.63;;;28.52;;
32475;SDS011;18929;48.008;10.882;2022-12-18T08:34:30;79.40;;;30.55;;
32475;SDS011;18929;48.008;10.882;2022-12-18T08:36:57;86.55;;;32.10;;
32475;SDS011;18929;48.008;10.882;2022-12-18T08:39:24;75.85;;;29.85;;
32475;SDS011;18929;48.008;10.882;2022-12-18T08:41:52;61.85;;;27.17;;
32475;SDS011;18929;48.008;10.882;2022-12-18T08:44:46;81.05;;;29.73;;
32475;SDS011;18929;48.008;10.882;2022-12-18T08:47:13;80.38;;;30.55;;
32475;SDS011;18929;48.008;10.882;2022-12-18T08:49:40;85.20;;;30.17;;
32475;SDS011;18929;48.008;10.882;2022-12-18T08:52:07;76.68;;;30.40;;
32475;SDS011;18929;48.008;10.882;2022-12-18T08:54:34;80.63;;;29.27;;
32475;SDS011;18929;48.008;10.882;2022-12-18T08:57:03;82.95;;;28.17;;
32475;SDS011;18929;48.008;10.882;2022-12-18T08:59:30;78.35;;;29.23;;
32475;SDS011;18929;48.008;10.882;2022-12-18T09:01:57;77.70;;;28.75;;
32475;SDS011;18929;48.008;10.882;2022-12-18T09:04:24;88.57;;;31.42;;
32475;SDS011;18929;48.008;10.882;2022-12-18T09:06:54;82.22;;;29.73;;
32475;SDS011;18929;48.008;10.882;2022-12-18T09:09:24;73.13;;;28.48;;
32475;SDS011;18929;48.008;10.882;2022-12-18T09:11:51;77.13;;;30.40;;
32475;SDS011;18929;48.008;10.882;2022-12-18T09:14:20;68.43;;;29.08;;
32475;SDS011;18929;48.008;10.882;2022-12-18T09:16:47;77.18;;;28.95;;
32475;SDS011;18929;48.008;10.882;2022-12-18T09:19:14;83.35;;;30.67;;
32475;SDS011;18929;48.008;10.882;2022-12-18T09:24:46;66.47;;;28.27;;
32475;SDS011;18929;48.008;10.882;2022-12-18T09:27:15;63.70;;;26.98;;
32475;SDS011;18929;48.008;10.882;2022-12-18T09:29:43;82.00;;;31.95;;
32475;SDS011;18929;48.008;10.882;2022-12-18T09:32:10;90.95;;;31.40;;
32475;SDS011;18929;48.008;10.882;2022-12-18T09:34:38;70.80;;;29.02;;
32475;SDS011;18929;48.008;10.882;2022-12-18T09:37:05;81.72;;;30.77;;
32475;SDS011;18929;48.008;10.882;2022-12-18T09:39:35;80.05;;;31.27;;
32475;SDS011;18929;48.008;10.882;2022-12-18T09:42:02;84.60;;;30.15;;
32475;SDS011;18929;48.008;10.882;2022-12-18T09:44:32;77.07;;;31.85;;
32475;SDS011;18929;48.008;10.882;2022-12-18T09:47:11;73.90;;;28.88;;
32475;SDS011;18929;48.008;10.882;2022-12-18T09:49:43;65.28;;;27.10;;
32475;SDS011;18929;48.008;10.882;2022-12-18T09:52:12;83.55;;;29.73;;
32475;SDS011;18929;48.008;10.882;2022-12-18T09:54:45;83.13;;;30.25;;
32475;SDS011;18929;48.008;10.882;2022-12-18T09:57:17;87.80;;;30.38;;
32475;SDS011;18929;48.008;10.882;2022-12-18T09:59:47;67.05;;;26.42;;
32475;SDS011;18929;48.008;10.882;2022-12-18T10:02:21;101.80;;;33.78;;
32475;SDS011;18929;48.008;10.882;2022-12-18T10:04:54;80.40;;;29.85;;
32475;SDS011;18929;48.008;10.882;2022-12-18T10:07:30;85.10;;;30.33;;
32475;SDS011;18929;48.008;10.882;2022-12-18T10:10:14;86.72;;;30.52;;
32475;SDS011;18929;48.008;10.882;2022-12-18T10:12:51;84.07;;;30.90;;
32475;SDS011;18929;48.008;10.882;2022-12-18T10:15:27;85.10;;;31.13;;
32475;SDS011;18929;48.008;10.882;2022-12-18T10:18:19;85.47;;;31.05;;
32475;SDS011;18929;48.008;10.882;2022-12-18T10:20:56;73.78;;;29.10;;
32475;SDS011;18929;48.008;10.882;2022-12-18T10:23:30;86.20;;;32.70;;
32475;SDS011;18929;48.008;10.882;2022-12-18T10:26:08;84.70;;;29.83;;
32475;SDS011;18929;48.008;10.882;2022-12-18T10:28:37;75.72;;;30.20;;
32475;SDS011;18929;48.008;10.882;2022-12-18T10:31:06;67.53;;;26.58;;
32475;SDS011;18929;48.008;10.882;2022-12-18T10:33:35;85.72;;;30.38;;
32475;SDS011;18929;48.008;10.882;2022-12-18T10:36:06;92.20;;;30.73;;
32475;SDS011;18929;48.008;10.882;2022-12-18T10:38:33;69.18;;;26.45;;
32475;SDS011;18929;48.008;10.882;2022-12-18T10:41:01;63.88;;;25.85;;
32475;SDS011;18929;48.008;10.882;2022-12-18T10:46:37;82.78;;;30.00;;
32475;SDS011;18929;48.008;10.882;2022-12-18T10:49:17;87.18;;;30.77;;
32475;SDS011;18929;48.008;10.882;2022-12-18T10:52:04;77.07;;;28.02;;
32475;SDS011;18929;48.008;10.882;2022-12-18T10:54:33;65.65;;;26.58;;
32475;SDS011;18929;48.008;10.882;2022-12-18T10:57:15;79.65;;;28.35;;
32475;SDS011;18929;48.008;10.882;2022-12-18T10:59:51;88.68;;;30.40;;
32475;SDS011;18929;48.008;10.882;2022-12-18T11:02:27;75.80;;;28.85;;
32475;SDS011;18929;48.008;10.882;2022-12-18T11:05:01;80.68;;;29.05;;
32475;SDS011;18929;48.008;10.882;2022-12-18T11:07:46;75.13;;;29.93;;
32475;SDS011;18929;48.008;10.882;2022-12-18T11:10:16;79.32;;;30.60;;
32475;SDS011;18929;48.008;10.882;2022-12-18T11:12:44;62.53;;;26.05;;
32475;SDS011;18929;48.008;10.882;2022-12-18T11:15:13;80.40;;;29.88;;
32475;SDS011;18929;48.008;10.882;2022-12-18T11:20:21;83.57;;;28.40;;
32475;SDS011;18929;48.008;10.882;2022-12-18T11:22:54;67.32;;;22.60;;
32475;SDS011;18929;48.008;10.882;2022-12-18T11:25:23;78.93;;;29.02;;
32475;SDS011;18929;48.008;10.882;2022-12-18T11:27:51;82.90;;;30.98;;
32475;SDS011;18929;48.008;10.882;2022-12-18T11:30:21;70.90;;;29.75;;
32475;SDS011;18929;48.008;10.882;2022-12-18T11:32:51;94.47;;;32.53;;
32475;SDS011;18929;48.008;10.882;2022-12-18T11:35:23;70.15;;;28.38;;
32475;SDS011;18929;48.008;10.882;2022-12-18T11:38:01;93.00;;;31.15;;
32475;SDS011;18929;48.008;10.882;2022-12-18T11:40:33;65.50;;;27.05;;
32475;SDS011;18929;48.008;10.882;2022-12-18T11:43:04;60.60;;;25.15;;
32475;SDS011;18929;48.008;10.882;2022-12-18T11:45:35;65.22;;;26.30;;
32475;SDS011;18929;48.008;10.882;2022-12-18T11:50:41;93.07;;;30.70;;
32475;SDS011;18929;48.008;10.882;2022-12-18T11:53:14;88.47;;;31.70;;
32475;SDS011;18929;48.008;10.882;2022-12-18T11:55:46;82.35;;;28.73;;
32475;SDS011;18929;48.008;10.882;2022-12-18T11:58:39;81.72;;;29.80;;
32475;SDS011;18929;48.008;10.882;2022-12-18T12:01:18;81.78;;;29.02;;
32475;SDS011;18929;48.008;10.882;2022-12-18T12:06:55;62.05;;;26.95;;
32475;SDS011;18929;48.008;10.882;2022-12-18T12:09:32;91.45;;;31.20;;
32475;SDS011;18929;48.008;10.882;2022-12-18T12:12:10;75.88;;;28.77;;
32475;SDS011;18929;48.008;10.882;2022-12-18T12:14:51;69.72;;;25.35;;
32475;SDS011;18929;48.008;10.882;2022-12-18T12:17:26;78.28;;;28.33;;
32475;SDS011;18929;48.008;10.882;2022-12-18T12:20:02;76.32;;;25.20;;
32475;SDS011;18929;48.008;10.882;2022-12-18T12:22:40;84.00;;;30.10;;
32475;SDS011;18929;48.008;10.882;2022-12-18T12:25:17;77.43;;;28.92;;
32475;SDS011;18929;48.008;10.882;2022-12-18T12:27:53;74.63;;;29.75;;
32475;SDS011;18929;48.008;10.882;2022-12-18T12:30:29;89.80;;;33.08;;
32475;SDS011;18929;48.008;10.882;2022-12-18T12:33:04;83.85;;;33.38;;
32475;SDS011;18929;48.008;10.882;2022-12-18T12:38:28;87.32;;;32.15;;
32475;SDS011;18929;48.008;10.882;2022-12-18T12:41:01;91.15;;;32.35;;
32475;SDS011;18929;48.008;10.882;2022-12-18T12:43:33;84.30;;;31.80;;
32475;SDS011;18929;48.008;10.882;2022-12-18T12:46:05;122.47;;;45.47;;
32475;SDS011;18929;48.008;10.882;2022-12-18T12:48:36;107.85;;;37.35;;
32475;SDS011;18929;48.008;10.882;2022-12-18T12:51:09;79.43;;;31.10;;
32475;SDS011;18929;48.008;10.882;2022-12-18T12:53:43;90.88;;;32.58;;
32475;SDS011;18929;48.008;10.882;2022-12-18T12:56:11;95.95;;;31.55;;
32475;SDS011;18929;48.008;10.882;2022-12-18T12:58:43;88.70;;;31.83;;
32475;SDS011;18929;48.008;10.882;2022-12-18T13:01:17;73.72;;;30.10;;
32475;SDS011;18929;48.008;10.882;2022-12-18T13:03:54;73.07;;;29.70;;
32475;SDS011;18929;48.008;10.882;2022-12-18T13:06:31;94.03;;;32.47;;
32475;SDS011;18929;48.008;10.882;2022-12-18T13:09:05;83.88;;;30.98;;
32475;SDS011;18929;48.008;10.882;2022-12-18T13:11:35;84.70;;;31.83;;
32475;SDS011;18929;48.008;10.882;2022-12-18T13:14:22;63.47;;;26.50;;
32475;SDS011;18929;48.008;10.882;2022-12-18T13:16:50;73.15;;;29.30;;
32475;SDS011;18929;48.008;10.882;2022-12-18T13:19:21;90.90;;;31.05;;
32475;SDS011;18929;48.008;10.882;2022-12-18T13:21:54;76.28;;;29.77;;
32475;SDS011;18929;48.008;10.882;2022-12-18T13:24:24;74.85;;;29.17;;
32475;SDS011;18929;48.008;10.882;2022-12-18T13:26:52;80.78;;;30.75;;
32475;SDS011;18929;48.008;10.882;2022-12-18T13:38:18;78.25;;;30.52;;
32475;SDS011;18929;48.008;10.882;2022-12-18T13:40:56;74.25;;;28.58;;
32475;SDS011;18929;48.008;10.882;2022-12-18T13:43:26;65.55;;;27.33;;
32475;SDS011;18929;48.008;10.882;2022-12-18T13:46:24;83.57;;;31.00;;
32475;SDS011;18929;48.008;10.882;2022-12-18T13:48:55;81.55;;;30.30;;
32475;SDS011;18929;48.008;10.882;2022-12-18T13:51:43;78.20;;;30.77;;
32475;SDS011;18929;48.008;10.882;2022-12-18T13:54:19;85.03;;;32.15;;
32475;SDS011;18929;48.008;10.882;2022-12-18T13:56:50;80.97;;;29.77;;
32475;SDS011;18929;48.008;10.882;2022-12-18T13:59:18;77.75;;;30.88;;
32475;SDS011;18929;48.008;10.882;2022-12-18T14:01:51;74.93;;;26.15;;
32475;SDS011;18929;48.008;10.882;2022-12-18T14:04:24;77.68;;;28.17;;
32475;SDS011;18929;48.008;10.882;2022-12-18T14:06:55;78.60;;;29.42;;
32475;SDS011;18929;48.008;10.882;2022-12-18T14:09:26;77.63;;;30.90;;
32475;SDS011;18929;48.008;10.882;2022-12-18T14:11:56;78.85;;;30.27;;
32475;SDS011;18929;48.008;10.882;2022-12-18T14:14:40;75.65;;;28.63;;
32475;SDS011;18929;48.008;10.882;2022-12-18T14:17:10;81.70;;;29.77;;
32475;SDS011;18929;48.008;10.882;2022-12-18T14:19:41;85.28;;;30.77;;
32475;SDS011;18929;48.008;10.882;2022-12-18T14:22:16;77.13;;;28.40;;
32475;SDS011;18929;48.008;10.882;2022-12-18T14:24:44;74.35;;;27.20;;
32475;SDS011;18929;48.008;10.882;2022-12-18T14:27:19;72.78;;;29.65;;
32475;SDS011;18929;48.008;10.882;2022-12-18T14:29:48;79.45;;;30.58;;
32475;SDS011;18929;48.008;10.882;2022-12-18T14:32:16;76.18;;;28.92;;
32475;SDS011;18929;48.008;10.882;2022-12-18T14:34:44;77.78;;;29.77;;
32475;SDS011;18929;48.008;10.882;2022-12-18T14:37:12;76.45;;;29.02;;
32475;SDS011;18929;48.008;10.882;2022-12-18T14:39:51;76.78;;;29.25;;
32475;SDS011;18929;48.008;10.882;2022-12-18T14:42:21;75.60;;;29.35;;
32475;SDS011;18929;48.008;10.882;2022-12-18T14:44:48;76.57;;;27.73;;
32475;SDS011;18929;48.008;10.882;2022-12-18T14:47:15;76.07;;;28.15;;
32475;SDS011;18929;48.008;10.882;2022-12-18T14:49:42;82.90;;;29.65;;
32475;SDS011;18929;48.008;10.882;2022-12-18T14:52:16;69.85;;;26.20;;
32475;SDS011;18929;48.008;10.882;2022-12-18T14:54:48;80.20;;;30.35;;
32475;SDS011;18929;48.008;10.882;2022-12-18T14:57:18;82.22;;;31.02;;
32475;SDS011;18929;48.008;10.882;2022-12-18T14:59:50;76.05;;;30.77;;
32475;SDS011;18929;48.008;10.882;2022-12-18T15:02:20;82.15;;;31.98;;
32475;SDS011;18929;48.008;10.882;2022-12-18T15:04:59;80.97;;;30.60;;
32475;SDS011;18929;48.008;10.882;2022-12-18T15:07:38;74.25;;;29.23;;
32475;SDS011;18929;48.008;10.882;2022-12-18T15:10:10;75.30;;;28.38;;
32475;SDS011;18929;48.008;10.882;2022-12-18T15:12:43;73.93;;;28.52;;
32475;SDS011;18929;48.008;10.882;2022-12-18T15:18:14;78.63;;;30.70;;
32475;SDS011;18929;48.008;10.882;2022-12-18T15:21:10;83.97;;;31.45;;
32475;SDS011;18929;48.008;10.882;2022-12-18T15:42:07;79.50;;;30.35;;
32475;SDS011;18929;48.008;10.882;2022-12-18T15:44:55;75.32;;;30.00;;
32475;SDS011;18929;48.008;10.882;2022-12-18T15:47:22;70.22;;;27.80;;
32475;SDS011;18929;48.008;10.882;2022-12-18T15:49:50;79.30;;;27.77;;
32475;SDS011;18929;48.008;10.882;2022-12-18T15:52:16;81.28;;;29.58;;
32475;SDS011;18929;48.008;10.882;2022-12-18T15:54:51;72.07;;;26.75;;
32475;SDS011;18929;48.008;10.882;2022-12-18T15:57:37;74.78;;;29.67;;
32475;SDS011;18929;48.008;10.882;2022-12-18T16:00:05;73.07;;;28.33;;
32475;SDS011;18929;48.008;10.882;2022-12-18T16:02:38;71.78;;;26.63;;
32475;SDS011;18929;48.008;10.882;2022-12-18T16:05:08;73.43;;;28.65;;
32475;SDS011;18929;48.008;10.882;2022-12-18T16:07:43;66.22;;;27.42;;
32475;SDS011;18929;48.008;10.882;2022-12-18T16:10:10;77.28;;;30.00;;